sensor_id;sensor_type;location;lat;lon;timestamp;pressure;altitude;pressure_sealevel;temperature;humidity
8049;BME280;20935;42.660;23.342;2022-12-29T00:01:37;95650.91;;;4.58;100.00
8049;BME280;20935;42.660;23.342;2022-12-29T00:04:04;95664.09;;;5.19;100.00
8049;BME280;20935;42.660;23.342;2022-12-29T00:06:32;95658.72;;;5.03;100.00
8049;BME280;20935;42.660;23.342;2022-12-29T00:08:58;95663.47;;;4.86;100.00
8049;BME280;20935;42.660;23.342;2022-12-29T00:11:25;95668.91;;;5.01;100.00
8049;BME280;20935;42.660;23.342;2022-12-29T00:13:52;95666.69;;;5.03;100.00
8049;BME280;20935;42.660;23.342;2022-12-29T00:16:38;95673.97;;;5.06;100.00
8049;BME280;20935;42.660;23.342;2022-12-29T00:19:05;95673.97;;;5.06;100.00
8049;BME280;20935;42.660;23.342;2022-12-29T00:21:31;95673.97;;;5.06;100.00
8049;BME280;20935;42.660;23.342;2022-12-29T00:24:16;95673.97;;;5.06;100.00
8049;BME280;20935;42.660;23.342;2022-12-29T00:29:50;95673.97;;;5.06;100.00
8049;BME280;20935;42.660;23.342;2022-12-29T00:32:34;95673.97;;;5.06;100.00
8049;BME280;20935;42.660;23.342;2022-12-29T00:37:47;95673.97;;;5.06;100.00
8049;BME280;20935;42.660;23.342;2022-12-29T00:40:31;95673.97;;;5.06;100.00
8049;BME280;20935;42.660;23.342;2022-12-29T00:43:16;95673.97;;;5.06;100.00
8049;BME280;20935;42.660;23.342;2022-12-29T00:46:00;65502.94;;;-143.54;100.00
8049;BME280;20935;42.660;23.342;2022-12-29T00:48:26;95673.97;;;5.06;100.00
8049;BME280;20935;42.660;23.342;2022-12-29T00:51:10;95673.97;;;5.06;100.00
8049;BME280;20935;42.660;23.342;2022-12-29T00:53:38;95673.97;;;5.06;100.00
8049;BME280;20935;42.660;23.342;2022-12-29T00:56:03;109666.91;;;5.06;100.00
8049;BME280;20935;42.660;23.342;2022-12-29T00:58:31;65502.94;;;-143.54;100.00
8049;BME280;20935;42.660;23.342;2022-12-29T01:01:06;65502.94;;;-143.54;100.00
8049;BME280;20935;42.660;23.342;2022-12-29T01:03:35;65502.94;;;-143.54;100.00
8049;BME280;20935;42.660;23.342;2022-12-29T01:06:02;65502.94;;;-143.54;100.00
8049;BME280;20935;42.660;23.342;2022-12-29T01:08:28;65502.94;;;-143.54;100.00
8049;BME280;20935;42.660;23.342;2022-12-29T01:11:06;65502.94;;;-143.54;100.00
8049;BME280;20935;42.660;23.342;2022-12-29T01:13:32;95673.97;;;5.06;100.00
8049;BME280;20935;42.660;23.342;2022-12-29T01:15:58;95673.97;;;5.06;100.00
8049;BME280;20935;42.660;23.342;2022-12-29T01:18:24;95673.97;;;5.06;100.00
8049;BME280;20935;42.660;23.342;2022-12-29T01:23:16;65502.94;;;-143.54;100.00
8049;BME280;20935;42.660;23.342;2022-12-29T01:25:41;95673.97;;;5.06;100.00
8049;BME280;20935;42.660;23.342;2022-12-29T01:28:07;74840.72;;;-143.54;100.00
8049;BME280;20935;42.660;23.342;2022-12-29T01:30:35;95673.97;;;5.06;100.00
8049;BME280;20935;42.660;23.342;2022-12-29T01:33:01;65502.94;;;-143.54;100.00
8049;BME280;20935;42.660;23.342;2022-12-29T01:35:27;95673.97;;;187.72;100.00
8049;BME280;20935;42.660;23.342;2022-12-29T01:37:52;95673.97;;;5.06;100.00
8049;BME280;20935;42.660;23.342;2022-12-29T01:40:18;95673.97;;;5.06;100.00
8049;BME280;20935;42.660;23.342;2022-12-29T01:42:43;74840.72;;;5.06;100.00
8049;BME280;20935;42.660;23.342;2022-12-29T01:45:12;95673.97;;;5.06;100.00
8049;BME280;20935;42.660;23.342;2022-12-29T01:47:47;65502.94;;;-143.54;100.00
8049;BME280;20935;42.660;23.342;2022-12-29T01:50:24;95673.97;;;5.06;100.00
8049;BME280;20935;42.660;23.342;2022-12-29T01:53:05;95673.97;;;5.06;100.00
8049;BME280;20935;42.660;23.342;2022-12-29T01:55:37;65502.94;;;-143.54;100.00
8049;BME280;20935;42.660;23.342;2022-12-29T01:58:06;65502.94;;;-143.54;100.00
8049;BME280;20935;42.660;23.342;2022-12-29T02:00:32;65502.94;;;-143.54;100.00
8049;BME280;20935;42.660;23.342;2022-12-29T02:02:57;65502.94;;;-143.54;100.00
8049;BME280;20935;42.660;23.342;2022-12-29T02:08:01;65502.94;;;-143.54;100.00
8049;BME280;20935;42.660;23.342;2022-12-29T02:10:29;95673.97;;;5.06;100.00
8049;BME280;20935;42.660;23.342;2022-12-29T02:12:58;65502.94;;;-143.54;100.00
8049;BME280;20935;42.660;23.342;2022-12-29T02:18:55;65502.94;;;-143.54;100.00
8049;BME280;20935;42.660;23.342;2022-12-29T02:24:37;95673.97;;;5.06;100.00
8049;BME280;20935;42.660;23.342;2022-12-29T02:30:07;95673.97;;;5.06;100.00
8049;BME280;20935;42.660;23.342;2022-12-29T02:32:50;95673.97;;;-143.54;100.00
8049;BME280;20935;42.660;23.342;2022-12-29T02:35:29;95673.97;;;5.06;100.00
8049;BME280;20935;42.660;23.342;2022-12-29T02:40:40;95673.97;;;5.06;100.00
8049;BME280;20935;42.660;23.342;2022-12-29T02:43:13;95673.97;;;5.06;100.00
8049;BME280;20935;42.660;23.342;2022-12-29T02:45:54;65502.94;;;-143.54;100.00
8049;BME280;20935;42.660;23.342;2022-12-29T02:48:38;65502.94;;;-143.54;100.00
8049;BME280;20935;42.660;23.342;2022-12-29T02:51:12;-17531.84;;;-143.53;100.00
8049;BME280;20935;42.660;23.342;2022-12-29T02:53:40;95673.97;;;5.06;100.00
8049;BME280;20935;42.660;23.342;2022-12-29T02:56:24;95673.97;;;5.06;100.00
8049;BME280;20935;42.660;23.342;2022-12-29T02:58:52;95673.97;;;5.06;100.00
8049;BME280;20935;42.660;23.342;2022-12-29T03:01:55;95673.97;;;5.06;100.00
8049;BME280;20935;42.660;23.342;2022-12-29T03:08:23;95617.16;;;4.83;100.00
8049;BME280;20935;42.660;23.342;2022-12-29T03:13:22;95617.16;;;4.83;100.00
8049;BME280;20935;42.660;23.342;2022-12-29T03:24:34;95614.72;;;4.90;100.00
8049;BME280;20935;42.660;23.342;2022-12-29T03:27:06;95605.38;;;4.68;100.00
8049;BME280;20935;42.660;23.342;2022-12-29T03:29:41;95613.22;;;4.65;100.00
8049;BME280;20935;42.660;23.342;2022-12-29T03:32:09;95613.22;;;4.65;100.00
8049;BME280;20935;42.660;23.342;2022-12-29T03:34:37;95609.03;;;4.52;100.00
8049;BME280;20935;42.660;23.342;2022-12-29T03:37:11;95609.03;;;4.52;100.00
8049;BME280;20935;42.660;23.342;2022-12-29T03:39:38;95616.88;;;4.48;100.00
8049;BME280;20935;42.660;23.342;2022-12-29T03:42:08;95616.88;;;4.48;100.00
8049;BME280;20935;42.660;23.342;2022-12-29T03:44:40;95608.81;;;4.33;100.00
8049;BME280;20935;42.660;23.342;2022-12-29T03:47:06;95608.81;;;4.33;100.00
8049;BME280;20935;42.660;23.342;2022-12-29T03:49:32;95608.81;;;4.33;100.00
8049;BME280;20935;42.660;23.342;2022-12-29T03:52:00;95608.81;;;4.33;100.00
8049;BME280;20935;42.660;23.342;2022-12-29T03:54:26;95608.81;;;4.33;100.00
8049;BME280;20935;42.660;23.342;2022-12-29T03:56:51;95608.81;;;4.33;100.00
8049;BME280;20935;42.660;23.342;2022-12-29T03:59:19;95608.81;;;4.33;100.00
8049;BME280;20935;42.660;23.342;2022-12-29T04:01:45;95608.81;;;4.33;100.00
8049;BME280;20935;42.660;23.342;2022-12-29T04:04:14;95608.81;;;4.33;100.00
8049;BME280;20935;42.660;23.342;2022-12-29T04:06:39;95608.81;;;4.33;100.00
8049;BME280;20935;42.660;23.342;2022-12-29T04:09:05;95608.81;;;4.33;100.00
8049;BME280;20935;42.660;23.342;2022-12-29T04:11:33;95608.81;;;4.33;100.00
8049;BME280;20935;42.660;23.342;2022-12-29T04:14:01;95608.81;;;4.33;100.00
8049;BME280;20935;42.660;23.342;2022-12-29T04:16:26;95608.81;;;-143.53;100.00
8049;BME280;20935;42.660;23.342;2022-12-29T04:18:52;95608.81;;;4.33;100.00
8049;BME280;20935;42.660;23.342;2022-12-29T04:21:17;95608.81;;;4.33;100.00
8049;BME280;20935;42.660;23.342;2022-12-29T04:23:43;95608.81;;;4.33;100.00
8049;BME280;20935;42.660;23.342;2022-12-29T04:26:09;95608.81;;;4.33;100.00
8049;BME280;20935;42.660;23.342;2022-12-29T04:28:36;95608.81;;;-143.53;100.00
8049;BME280;20935;42.660;23.342;2022-12-29T04:31:04;95608.81;;;4.33;100.00
8049;BME280;20935;42.660;23.342;2022-12-29T04:33:30;95608.81;;;187.72;100.00
8049;BME280;20935;42.660;23.342;2022-12-29T04:35:56;95608.81;;;4.33;100.00
8049;BME280;20935;42.660;23.342;2022-12-29T04:38:24;95608.81;;;-143.53;100.00
8049;BME280;20935;42.660;23.342;2022-12-29T04:40:50;123806.91;;;187.72;100.00
8049;BME280;20935;42.660;23.342;2022-12-29T04:43:16;95608.81;;;4.33;100.00
8049;BME280;20935;42.660;23.342;2022-12-29T04:45:46;95608.81;;;4.33;100.00
8049;BME280;20935;42.660;23.342;2022-12-29T04:48:12;95608.81;;;4.33;100.00
8049;BME280;20935;42.660;23.342;2022-12-29T04:50:39;95608.81;;;-143.53;100.00
8049;BME280;20935;42.660;23.342;2022-12-29T04:53:05;95608.81;;;4.33;100.00
8049;BME280;20935;42.660;23.342;2022-12-29T04:55:31;95608.81;;;-143.53;100.00
8049;BME280;20935;42.660;23.342;2022-12-29T04:57:56;95608.81;;;4.33;100.00
8049;BME280;20935;42.660;23.342;2022-12-29T05:00:22;95608.81;;;4.33;100.00
8049;BME280;20935;42.660;23.342;2022-12-29T05:02:47;95608.81;;;4.33;100.00
8049;BME280;20935;42.660;23.342;2022-12-29T05:05:13;95608.81;;;4.33;100.00
8049;BME280;20935;42.660;23.342;2022-12-29T05:07:38;95608.81;;;4.33;100.00
8049;BME280;20935;42.660;23.342;2022-12-29T05:10:04;95608.81;;;4.33;100.00
8049;BME280;20935;42.660;23.342;2022-12-29T05:12:31;95608.81;;;4.33;100.00
8049;BME280;20935;42.660;23.342;2022-12-29T05:14:59;95608.81;;;4.33;100.00
8049;BME280;20935;42.660;23.342;2022-12-29T05:20:40;95608.81;;;4.33;100.00
8049;BME280;20935;42.660;23.342;2022-12-29T05:23:05;95608.81;;;4.33;100.00
8049;BME280;20935;42.660;23.342;2022-12-29T05:25:30;95608.81;;;4.33;100.00
8049;BME280;20935;42.660;23.342;2022-12-29T05:27:56;95608.81;;;4.33;100.00
8049;BME280;20935;42.660;23.342;2022-12-29T05:30:23;95608.81;;;4.33;100.00
8049;BME280;20935;42.660;23.342;2022-12-29T05:32:49;95664.84;;;3.12;100.00
8049;BME280;20935;42.660;23.342;2022-12-29T05:35:16;95664.84;;;3.12;100.00
8049;BME280;20935;42.660;23.342;2022-12-29T05:37:42;95664.84;;;3.12;100.00
8049;BME280;20935;42.660;23.342;2022-12-29T05:40:07;95664.84;;;3.12;100.00
8049;BME280;20935;42.660;23.342;2022-12-29T05:42:33;95679.53;;;3.09;100.00
8049;BME280;20935;42.660;23.342;2022-12-29T05:44:58;95678.03;;;3.41;100.00
8049;BME280;20935;42.660;23.342;2022-12-29T05:47:28;95679.31;;;3.35;100.00
8049;BME280;20935;42.660;23.342;2022-12-29T05:49:53;95679.31;;;-143.53;100.00
8049;BME280;20935;42.660;23.342;2022-12-29T05:55:08;95679.31;;;3.35;100.00
8049;BME280;20935;42.660;23.342;2022-12-29T05:57:33;95693.09;;;3.82;100.00
8049;BME280;20935;42.660;23.342;2022-12-29T05:59:59;95683.31;;;4.07;100.00
8049;BME280;20935;42.660;23.342;2022-12-29T06:02:24;95683.31;;;4.07;100.00
8049;BME280;20935;42.660;23.342;2022-12-29T06:04:49;95683.31;;;4.07;100.00
8049;BME280;20935;42.660;23.342;2022-12-29T06:07:15;95683.31;;;4.07;100.00
8049;BME280;20935;42.660;23.342;2022-12-29T06:09:40;95693.69;;;4.57;100.00
8049;BME280;20935;42.660;23.342;2022-12-29T06:12:06;95693.69;;;4.57;100.00
8049;BME280;20935;42.660;23.342;2022-12-29T06:14:31;95693.69;;;4.57;100.00
8049;BME280;20935;42.660;23.342;2022-12-29T06:16:56;65502.94;;;-143.54;100.00
8049;BME280;20935;42.660;23.342;2022-12-29T06:19:22;65502.94;;;-143.54;100.00
8049;BME280;20935;42.660;23.342;2022-12-29T06:21:47;65502.94;;;-143.54;100.00
8049;BME280;20935;42.660;23.342;2022-12-29T06:24:12;109545.16;;;4.57;100.00
8049;BME280;20935;42.660;23.342;2022-12-29T06:26:38;65502.94;;;-143.54;100.00
8049;BME280;20935;42.660;23.342;2022-12-29T06:29:05;65502.94;;;-143.54;100.00
8049;BME280;20935;42.660;23.342;2022-12-29T06:31:32;65502.94;;;-143.54;100.00
8049;BME280;20935;42.660;23.342;2022-12-29T06:36:22;95693.69;;;144.95;100.00
8049;BME280;20935;42.660;23.342;2022-12-29T06:38:48;95693.69;;;4.57;100.00
8049;BME280;20935;42.660;23.342;2022-12-29T06:41:15;80973.94;;;-143.54;100.00
8049;BME280;20935;42.660;23.342;2022-12-29T06:43:40;74914.38;;;-143.54;100.00
8049;BME280;20935;42.660;23.342;2022-12-29T06:46:06;65502.94;;;-143.54;100.00
8049;BME280;20935;42.660;23.342;2022-12-29T06:48:31;95693.69;;;4.57;100.00
8049;BME280;20935;42.660;23.342;2022-12-29T06:50:59;95693.69;;;4.57;100.00
8049;BME280;20935;42.660;23.342;2022-12-29T06:53:24;95693.69;;;4.57;100.00
8049;BME280;20935;42.660;23.342;2022-12-29T06:55:49;95693.69;;;4.57;100.00
8049;BME280;20935;42.660;23.342;2022-12-29T06:58:15;-12707.19;;;187.72;100.00
8049;BME280;20935;42.660;23.342;2022-12-29T07:00:43;95718.84;;;5.36;100.00
8049;BME280;20935;42.660;23.342;2022-12-29T07:03:08;95716.78;;;5.69;100.00
8049;BME280;20935;42.660;23.342;2022-12-29T07:05:36;95716.78;;;5.69;100.00
8049;BME280;20935;42.660;23.342;2022-12-29T07:08:02;65502.94;;;-143.54;100.00
8049;BME280;20935;42.660;23.342;2022-12-29T07:10:27;65502.94;;;-143.54;100.00
8049;BME280;20935;42.660;23.342;2022-12-29T07:12:52;65502.94;;;-143.54;100.00
8049;BME280;20935;42.660;23.342;2022-12-29T07:15:18;95716.78;;;5.69;100.00
8049;BME280;20935;42.660;23.342;2022-12-29T07:17:43;95716.78;;;5.69;100.00
8049;BME280;20935;42.660;23.342;2022-12-29T07:20:08;95716.78;;;5.69;100.00
8049;BME280;20935;42.660;23.342;2022-12-29T07:22:34;95716.78;;;5.69;100.00
8049;BME280;20935;42.660;23.342;2022-12-29T07:24:59;95716.78;;;5.69;100.00
8049;BME280;20935;42.660;23.342;2022-12-29T07:27:25;95716.78;;;5.69;100.00
8049;BME280;20935;42.660;23.342;2022-12-29T07:29:50;65502.94;;;-143.54;100.00
8049;BME280;20935;42.660;23.342;2022-12-29T07:32:15;95716.78;;;5.69;100.00
8049;BME280;20935;42.660;23.342;2022-12-29T07:34:41;74799.78;;;-143.54;100.00
8049;BME280;20935;42.660;23.342;2022-12-29T07:37:06;65502.94;;;-143.54;100.00
8049;BME280;20935;42.660;23.342;2022-12-29T07:39:31;95716.78;;;5.69;100.00
8049;BME280;20935;42.660;23.342;2022-12-29T07:41:59;-12707.19;;;-143.54;100.00
8049;BME280;20935;42.660;23.342;2022-12-29T07:44:24;95716.78;;;5.69;100.00
8049;BME280;20935;42.660;23.342;2022-12-29T07:46:52;95716.78;;;5.69;100.00
8049;BME280;20935;42.660;23.342;2022-12-29T07:49:17;95716.78;;;-143.53;100.00
8049;BME280;20935;42.660;23.342;2022-12-29T07:51:43;95716.78;;;5.69;100.00
8049;BME280;20935;42.660;23.342;2022-12-29T07:54:08;65502.94;;;-143.54;100.00
8049;BME280;20935;42.660;23.342;2022-12-29T07:56:33;95716.78;;;5.69;100.00
8049;BME280;20935;42.660;23.342;2022-12-29T07:58:59;95716.78;;;5.69;100.00
8049;BME280;20935;42.660;23.342;2022-12-29T08:01:26;65502.94;;;-143.54;100.00
8049;BME280;20935;42.660;23.342;2022-12-29T08:03:52;65502.94;;;-143.54;100.00
8049;BME280;20935;42.660;23.342;2022-12-29T08:06:17;95716.78;;;5.69;100.00
8049;BME280;20935;42.660;23.342;2022-12-29T08:08:44;65502.94;;;-143.54;100.00
8049;BME280;20935;42.660;23.342;2022-12-29T08:11:09;95716.78;;;5.69;100.00
8049;BME280;20935;42.660;23.342;2022-12-29T08:13:35;95716.78;;;5.69;100.00
8049;BME280;20935;42.660;23.342;2022-12-29T08:16:00;95716.78;;;5.69;100.00
8049;BME280;20935;42.660;23.342;2022-12-29T08:18:26;95716.78;;;5.69;100.00
8049;BME280;20935;42.660;23.342;2022-12-29T08:20:51;95716.78;;;5.69;100.00
8049;BME280;20935;42.660;23.342;2022-12-29T08:23:16;95716.78;;;5.69;100.00
8049;BME280;20935;42.660;23.342;2022-12-29T08:25:42;95716.78;;;5.69;100.00
8049;BME280;20935;42.660;23.342;2022-12-29T13:24:35;95527.91;;;15.46;51.94
8049;BME280;20935;42.660;23.342;2022-12-29T13:26:49;95540.94;;;12.80;63.44
8049;BME280;20935;42.660;23.342;2022-12-29T13:29:26;95526.75;;;12.72;65.88
8049;BME280;20935;42.660;23.342;2022-12-29T13:37:18;95522.06;;;11.42;77.16
8049;BME280;20935;42.660;23.342;2022-12-29T13:39:52;95526.31;;;11.53;78.18
8049;BME280;20935;42.660;23.342;2022-12-29T13:42:21;95529.22;;;11.02;80.93
8049;BME280;20935;42.660;23.342;2022-12-29T13:44:58;95529.59;;;11.04;82.35
8049;BME280;20935;42.660;23.342;2022-12-29T13:47:33;95533.19;;;10.64;84.94
8049;BME280;20935;42.660;23.342;2022-12-29T13:50:03;95525.88;;;10.54;86.69
8049;BME280;20935;42.660;23.342;2022-12-29T13:53:11;95526.28;;;10.63;87.57
8049;BME280;20935;42.660;23.342;2022-12-29T13:55:49;95521.47;;;10.28;89.52
8049;BME280;20935;42.660;23.342;2022-12-29T14:00:50;95526.22;;;10.49;88.92
8049;BME280;20935;42.660;23.342;2022-12-29T14:08:36;95531.59;;;10.53;88.99
8049;BME280;20935;42.660;23.342;2022-12-29T14:11:11;95535.69;;;10.36;89.66
8049;BME280;20935;42.660;23.342;2022-12-29T14:13:41;95531.78;;;10.23;90.26
8049;BME280;20935;42.660;23.342;2022-12-29T14:16:21;95537.09;;;10.19;90.74
8049;BME280;20935;42.660;23.342;2022-12-29T14:18:49;95533.16;;;10.10;91.55
8049;BME280;20935;42.660;23.342;2022-12-29T14:23:46;95537.78;;;10.13;93.16
8049;BME280;20935;42.660;23.342;2022-12-29T14:28:39;95548.56;;;10.20;93.28
8049;BME280;20935;42.660;23.342;2022-12-29T14:33:41;95553.94;;;10.23;92.50
8049;BME280;20935;42.660;23.342;2022-12-29T14:36:33;95556.88;;;10.11;93.52
8049;BME280;20935;42.660;23.342;2022-12-29T14:38:59;95553.38;;;10.04;94.41
8049;BME280;20935;42.660;23.342;2022-12-29T14:41:38;95554.00;;;9.86;95.79
8049;BME280;20935;42.660;23.342;2022-12-29T14:46:55;95553.94;;;10.23;94.64
8049;BME280;20935;42.660;23.342;2022-12-29T14:49:24;95557.38;;;10.20;96.40
8049;BME280;20935;42.660;23.342;2022-12-29T14:51:53;95555.13;;;9.85;98.52
8049;BME280;20935;42.660;23.342;2022-12-29T14:57:14;95568.31;;;9.68;100.00
8049;BME280;20935;42.660;23.342;2022-12-29T14:59:42;95557.69;;;9.38;100.00
8049;BME280;20935;42.660;23.342;2022-12-29T15:02:25;95557.34;;;9.80;100.00
8049;BME280;20935;42.660;23.342;2022-12-29T15:04:53;95561.34;;;9.23;100.00
8049;BME280;20935;42.660;23.342;2022-12-29T15:07:21;95574.53;;;9.12;100.00
8049;BME280;20935;42.660;23.342;2022-12-29T15:09:56;95559.38;;;8.90;100.00
8049;BME280;20935;42.660;23.342;2022-12-29T15:12:40;95555.00;;;8.75;100.00
8049;BME280;20935;42.660;23.342;2022-12-29T15:15:37;95555.94;;;8.89;100.00
8049;BME280;20935;42.660;23.342;2022-12-29T15:18:24;95560.97;;;8.68;100.00
8049;BME280;20935;42.660;23.342;2022-12-29T15:20:53;95554.44;;;8.62;100.00
8049;BME280;20935;42.660;23.342;2022-12-29T15:23:19;95554.53;;;8.69;100.00
8049;BME280;20935;42.660;23.342;2022-12-29T15:28:15;95559.94;;;8.76;100.00
8049;BME280;20935;42.660;23.342;2022-12-29T15:31:03;95557.00;;;9.11;100.00
8049;BME280;20935;42.660;23.342;2022-12-29T15:33:29;95554.94;;;8.71;100.00
8049;BME280;20935;42.660;23.342;2022-12-29T15:35:56;95548.28;;;8.88;100.00
8049;BME280;20935;42.660;23.342;2022-12-29T15:38:29;95538.19;;;8.74;100.00
8049;BME280;20935;42.660;23.342;2022-12-29T15:41:06;95530.41;;;8.62;100.00
8049;BME280;20935;42.660;23.342;2022-12-29T15:46:17;95545.13;;;8.53;100.00
8049;BME280;20935;42.660;23.342;2022-12-29T15:48:45;95547.06;;;8.07;100.00
8049;BME280;20935;42.660;23.342;2022-12-29T15:53:50;95543.75;;;8.36;100.00
8049;BME280;20935;42.660;23.342;2022-12-29T15:56:17;95546.34;;;8.10;100.00
8049;BME280;20935;42.660;23.342;2022-12-29T15:58:48;95543.66;;;7.83;100.00
8049;BME280;20935;42.660;23.342;2022-12-29T16:01:30;95556.16;;;7.79;100.00
8049;BME280;20935;42.660;23.342;2022-12-29T16:04:01;95543.44;;;7.73;100.00
8049;BME280;20935;42.660;23.342;2022-12-29T16:06:35;95546.75;;;7.66;100.00
8049;BME280;20935;42.660;23.342;2022-12-29T16:09:18;95556.53;;;7.81;100.00
8049;BME280;20935;42.660;23.342;2022-12-29T16:11:54;95548.53;;;7.81;100.00
8049;BME280;20935;42.660;23.342;2022-12-29T16:16:52;95555.78;;;7.81;100.00
8049;BME280;20935;42.660;23.342;2022-12-29T16:19:32;95554.00;;;7.88;100.00
8049;BME280;20935;42.660;23.342;2022-12-29T16:21:58;95561.44;;;7.56;100.00
8049;BME280;20935;42.660;23.342;2022-12-29T16:24:29;95556.19;;;7.41;100.00
8049;BME280;20935;42.660;23.342;2022-12-29T16:27:07;95547.81;;;7.20;100.00
8049;BME280;20935;42.660;23.342;2022-12-29T16:29:34;95547.59;;;7.28;100.00
8049;BME280;20935;42.660;23.342;2022-12-29T16:32:00;95543.72;;;7.26;100.00
8049;BME280;20935;42.660;23.342;2022-12-29T16:35:10;95543.16;;;7.17;100.00
8049;BME280;20935;42.660;23.342;2022-12-29T16:37:35;95539.72;;;6.97;100.00
8049;BME280;20935;42.660;23.342;2022-12-29T16:40:29;95539.13;;;7.03;100.00
8049;BME280;20935;42.660;23.342;2022-12-29T16:43:02;95546.84;;;7.08;100.00
8049;BME280;20935;42.660;23.342;2022-12-29T16:48:21;95540.50;;;6.97;100.00
8049;BME280;20935;42.660;23.342;2022-12-29T16:50:52;95548.56;;;7.01;100.00
8049;BME280;20935;42.660;23.342;2022-12-29T16:53:38;95555.94;;;7.27;100.00
8049;BME280;20935;42.660;23.342;2022-12-29T16:56:17;95570.28;;;7.41;100.00
8049;BME280;20935;42.660;23.342;2022-12-29T16:58:49;95563.44;;;7.21;100.00
8049;BME280;20935;42.660;23.342;2022-12-29T17:01:16;95572.19;;;6.83;100.00
8049;BME280;20935;42.660;23.342;2022-12-29T17:27:05;95583.88;;;22.02;57.83
8049;BME280;20935;42.660;23.342;2022-12-29T17:29:34;95584.00;;;21.77;58.74
8049;BME280;20935;42.660;23.342;2022-12-29T17:32:03;95582.75;;;21.69;58.77
8049;BME280;20935;42.660;23.342;2022-12-29T17:34:30;95579.69;;;21.67;58.49
8049;BME280;20935;42.660;23.342;2022-12-29T17:36:56;95580.78;;;21.69;58.50
8049;BME280;20935;42.660;23.342;2022-12-29T17:41:36;95573.81;;;21.68;58.15
